Los Alamitos Army Air Field Los Alamitos US
ICAO: KSLI
IATA: SLI
Category: Medium
Scheduled Services: No

Elevation: 32 ft
TransAlt. 18000 ft.

Airport Communications:
SOCAL APP/DEP:124.65
AFLD OPS ADVSY SVC:126.2
GND:126.95
AASF OPS:41.5
PMSV METRO:23.98
ARCOM OPS:139.05
TWR:123.85

KSLI Zoom In..

Runways:

(A) RW 04L length 5900 ft width 150 ft
---- / hdg 40

(B) RW 04R length 8000 ft width 200 ft
---- / hdg 40

(C) RW 22L length 8000 ft width 200 ft
---- / hdg 220

(D) RW 22R length 5900 ft width 150 ft
---- / hdg 220

Location; KSLI
Day. 19 / Time. 20.58 Zulu
* Altimeter: 29.94
* Temperature: 26° c. 78.8°f.
* Wind from: 190° Speed 12 kn.
Dewpoint: 19° c.
Visibility: 10 Statute Miles.
Clouds: Few 5000 ft.
Clouds: Few 2000 ft.

KSLI 192058Z 19012KT 10SM FEW050 FEW200 26/19 A2994 RMK AO2A SLP141 T02610190 57009


Wind From 190°
Speed 12 kn.

 
 
jpsmedia.com for Web Design worldairports.se 2018   terms of use